Time;durP1;ratioP1;P1;durP2;ratioP2;P2;SDS_P1;SDS_P2;PMS_P1;PMS_P2;Temp;Humidity;BMP_temperature;BMP_pressure;BME280_temperature;BME280_humidity;BME280_pressure;Samples;Min_cycle;Max_cycle;Signal;HPM_P1;HPM_P2
2024/01/02 00:01:30;;;;;;;1.20;0.80;;;;;;;;;;5080221;28;20201;-70
2024/01/02 00:03:57;;;;;;;2.30;1.10;;;;;;;;;;5079535;28;20560;-70
2024/01/02 00:06:23;;;;;;;3.25;1.20;;;;;;;;;;5081557;28;20870;-70
2024/01/02 00:08:49;;;;;;;4.35;1.30;;;;;;;;;;5081370;28;20813;-70
2024/01/02 00:11:15;;;;;;;2.38;1.33;;;;;;;;;;5078181;28;20685;-70
2024/01/02 00:13:42;;;;;;;1.80;0.77;;;;;;;;;;5078153;28;20616;-70
2024/01/02 00:16:08;;;;;;;2.05;0.90;;;;;;;;;;5079610;28;20297;-70
2024/01/02 00:18:36;;;;;;;2.92;1.02;;;;;;;;;;5082033;28;20199;-70
2024/01/02 00:21:02;;;;;;;4.50;1.23;;;;;;;;;;5082705;28;20196;-70
2024/01/02 00:23:29;;;;;;;2.97;1.10;;;;;;;;;;5080086;28;20337;-70
2024/01/02 00:25:56;;;;;;;2.55;1.20;;;;;;;;;;5080132;28;20228;-70
2024/01/02 00:28:22;;;;;;;3.90;1.20;;;;;;;;;;5071972;28;20192;-70
2024/01/02 00:30:48;;;;;;;2.13;1.20;;;;;;;;;;5080235;28;20250;-70
2024/01/02 00:33:15;;;;;;;5.50;1.17;;;;;;;;;;5082664;28;20208;-70
2024/01/02 00:35:43;;;;;;;3.10;0.70;;;;;;;;;;5083126;28;20227;-70
2024/01/02 00:38:09;;;;;;;2.53;1.10;;;;;;;;;;5081546;28;20203;-70
2024/01/02 00:40:36;;;;;;;2.85;1.33;;;;;;;;;;5082521;28;20261;-70
2024/01/02 00:43:02;;;;;;;2.78;0.95;;;;;;;;;;5084729;28;20254;-70
2024/01/02 00:45:29;;;;;;;4.32;0.90;;;;;;;;;;5087503;28;20650;-70
2024/01/02 00:47:55;;;;;;;4.00;1.02;;;;;;;;;;5087875;28;20253;-70
2024/01/02 00:50:22;;;;;;;2.05;0.90;;;;;;;;;;5079048;28;20196;-70
2024/01/02 00:52:49;;;;;;;2.00;0.98;;;;;;;;;;5087707;28;20875;-70
2024/01/02 00:55:16;;;;;;;2.83;0.90;;;;;;;;;;5087265;28;20234;-70
2024/01/02 00:57:42;;;;;;;4.32;1.17;;;;;;;;;;5093515;28;20212;-70
2024/01/02 01:00:09;;;;;;;2.35;0.88;;;;;;;;;;5093923;28;20196;-70
2024/01/02 01:02:36;;;;;;;2.20;1.30;;;;;;;;;;5087293;28;20200;-70
2024/01/02 01:05:02;;;;;;;2.47;1.10;;;;;;;;;;5078474;28;20216;-70
2024/01/02 01:07:28;;;;;;;2.30;1.30;;;;;;;;;;5087107;28;20199;-70
2024/01/02 01:09:56;;;;;;;3.25;1.05;;;;;;;;;;5088193;28;20613;-70
2024/01/02 01:12:22;;;;;;;1.48;1.10;;;;;;;;;;5086657;28;20607;-70
2024/01/02 01:14:48;;;;;;;2.00;1.40;;;;;;;;;;5086856;28;21014;-70
2024/01/02 01:17:14;;;;;;;3.28;0.98;;;;;;;;;;5085283;28;20302;-70
2024/01/02 01:19:41;;;;;;;5.35;1.00;;;;;;;;;;5083670;28;20262;-70
2024/01/02 01:22:07;;;;;;;1.75;1.02;;;;;;;;;;5075780;28;20571;-70
2024/01/02 01:24:33;;;;;;;2.75;1.10;;;;;;;;;;5086734;28;20249;-70
2024/01/02 01:27:01;;;;;;;3.97;1.40;;;;;;;;;;5086972;28;20299;-70
2024/01/02 01:29:27;;;;;;;3.53;0.90;;;;;;;;;;5075432;28;20204;-70
2024/01/02 01:31:54;;;;;;;2.47;1.13;;;;;;;;;;5083484;28;20710;-70
2024/01/02 01:34:20;;;;;;;2.72;1.00;;;;;;;;;;5085306;28;20733;-70
2024/01/02 01:36:47;;;;;;;2.25;1.10;;;;;;;;;;5085947;28;20704;-70
2024/01/02 01:39:13;;;;;;;2.10;1.08;;;;;;;;;;5085057;28;20307;-70
2024/01/02 01:41:39;;;;;;;4.40;0.90;;;;;;;;;;5083156;28;20227;-70
2024/01/02 01:44:07;;;;;;;3.58;1.15;;;;;;;;;;5083213;28;20261;-70
2024/01/02 01:46:35;;;;;;;2.40;1.35;;;;;;;;;;5086480;28;20232;-70
2024/01/02 01:49:02;;;;;;;2.40;0.75;;;;;;;;;;5086445;28;20265;-70
2024/01/02 01:51:28;;;;;;;2.10;0.98;;;;;;;;;;5081278;28;20679;-70
2024/01/02 01:53:55;;;;;;;2.58;0.90;;;;;;;;;;5083143;28;20246;-70
2024/01/02 01:56:21;;;;;;;1.83;0.88;;;;;;;;;;5084940;28;20277;-70
2024/01/02 01:58:48;;;;;;;0.80;0.80;;;;;;;;;;5086344;28;20257;-70
2024/01/02 02:01:16;;;;;;;1.63;0.90;;;;;;;;;;5084887;28;20195;-70
2024/01/02 02:03:42;;;;;;;1.30;0.85;;;;;;;;;;5088184;28;20260;-70
2024/01/02 02:06:08;;;;;;;2.15;0.75;;;;;;;;;;5086084;28;20224;-70
2024/01/02 02:08:36;;;;;;;2.47;0.82;;;;;;;;;;5086235;28;20203;-70
2024/01/02 02:11:03;;;;;;;1.95;0.88;;;;;;;;;;5077716;28;20572;-70
2024/01/02 02:13:29;;;;;;;1.83;0.80;;;;;;;;;;5085607;28;20199;-70
2024/01/02 02:15:55;;;;;;;1.23;0.80;;;;;;;;;;5085693;28;20215;-70
2024/01/02 02:18:23;;;;;;;2.70;0.82;;;;;;;;;;5077050;28;20762;-70
2024/01/02 02:20:50;;;;;;;1.83;0.82;;;;;;;;;;5085812;28;20196;-70
2024/01/02 02:23:17;;;;;;;1.52;0.63;;;;;;;;;;5084681;28;20644;-70
2024/01/02 02:25:44;;;;;;;1.48;0.73;;;;;;;;;;5082097;28;20265;-70
2024/01/02 02:28:10;;;;;;;2.00;0.60;;;;;;;;;;5082498;28;20201;-70
2024/01/02 02:30:36;;;;;;;3.03;0.88;;;;;;;;;;5083575;28;20200;-70
2024/01/02 02:33:02;;;;;;;1.58;0.60;;;;;;;;;;5085491;28;20404;-70
2024/01/02 02:35:29;;;;;;;1.30;1.00;;;;;;;;;;5082303;28;20282;-70
2024/01/02 02:37:55;;;;;;;0.93;0.70;;;;;;;;;;5082175;28;20262;-70
2024/01/02 02:40:23;;;;;;;1.13;0.63;;;;;;;;;;5083615;28;20291;-70
2024/01/02 02:42:49;;;;;;;1.50;0.77;;;;;;;;;;5085298;28;20371;-70
2024/01/02 02:45:16;;;;;;;1.45;0.80;;;;;;;;;;5084026;28;20666;-70
2024/01/02 02:47:42;;;;;;;1.70;0.50;;;;;;;;;;5081945;28;20242;-70
2024/01/02 02:50:08;;;;;;;1.63;0.80;;;;;;;;;;5082399;28;20616;-70
2024/01/02 02:52:35;;;;;;;1.92;0.70;;;;;;;;;;5087088;28;20203;-70
2024/01/02 02:55:01;;;;;;;2.05;0.70;;;;;;;;;;5090362;28;20215;-70
2024/01/02 02:57:28;;;;;;;1.48;1.00;;;;;;;;;;5090620;28;20223;-70
2024/01/02 02:59:55;;;;;;;2.40;0.82;;;;;;;;;;5086623;28;20341;-70
2024/01/02 03:02:21;;;;;;;3.03;0.98;;;;;;;;;;5082465;28;20254;-70
2024/01/02 03:04:47;;;;;;;1.67;0.80;;;;;;;;;;5084453;28;20204;-70
2024/01/02 03:07:13;;;;;;;1.50;0.88;;;;;;;;;;5084520;28;20188;-70
2024/01/02 03:09:43;;;;;;;2.83;0.80;;;;;;;;;;5081417;28;20205;-70
2024/01/02 03:12:10;;;;;;;1.92;0.63;;;;;;;;;;5081111;28;20740;-70
2024/01/02 03:14:38;;;;;;;0.85;0.80;;;;;;;;;;5084463;28;20199;-70
2024/01/02 03:17:04;;;;;;;1.80;0.88;;;;;;;;;;5084647;28;20330;-70
2024/01/02 03:19:31;;;;;;;1.55;0.73;;;;;;;;;;5082142;28;20286;-70
2024/01/02 03:21:57;;;;;;;0.75;0.70;;;;;;;;;;5081000;28;20196;-70
2024/01/02 03:24:23;;;;;;;1.33;0.60;;;;;;;;;;5082332;28;20201;-70
2024/01/02 03:26:49;;;;;;;2.60;0.70;;;;;;;;;;5084443;28;20397;-70
2024/01/02 03:29:16;;;;;;;0.80;0.70;;;;;;;;;;5084482;28;20225;-70
2024/01/02 03:31:44;;;;;;;0.52;0.50;;;;;;;;;;5081059;28;20196;-70
2024/01/02 03:34:10;;;;;;;1.13;0.80;;;;;;;;;;5081059;28;20232;-70
2024/01/02 03:36:37;;;;;;;0.75;0.70;;;;;;;;;;5083895;28;20219;-70
2024/01/02 03:39:03;;;;;;;0.73;0.73;;;;;;;;;;5084089;28;20652;-70
2024/01/02 03:41:29;;;;;;;1.60;0.80;;;;;;;;;;5081789;28;20749;-70
2024/01/02 03:43:56;;;;;;;1.63;1.52;;;;;;;;;;5081014;28;20243;-70
2024/01/02 03:46:22;;;;;;;0.63;0.60;;;;;;;;;;5081470;28;20270;-70
2024/01/02 03:48:49;;;;;;;0.57;0.57;;;;;;;;;;5084104;28;20192;-70
2024/01/02 03:51:17;;;;;;;1.10;0.50;;;;;;;;;;5083952;28;20642;-70
2024/01/02 03:53:43;;;;;;;0.60;0.60;;;;;;;;;;5080743;28;20189;-70
2024/01/02 03:56:10;;;;;;;0.82;0.82;;;;;;;;;;5080507;28;20227;-70
2024/01/02 03:58:37;;;;;;;0.50;0.50;;;;;;;;;;5080749;28;20220;-70
2024/01/02 04:01:03;;;;;;;1.65;0.47;;;;;;;;;;5080743;28;20201;-70
2024/01/02 04:03:30;;;;;;;0.40;0.40;;;;;;;;;;5081975;28;20688;-70
2024/01/02 04:05:57;;;;;;;0.30;0.30;;;;;;;;;;5083762;28;20216;-70
2024/01/02 04:08:23;;;;;;;0.47;0.43;;;;;;;;;;5083033;28;20272;-70
2024/01/02 04:10:50;;;;;;;0.43;0.30;;;;;;;;;;5079921;28;20201;-70
2024/01/02 04:13:16;;;;;;;0.40;0.40;;;;;;;;;;5080004;28;20242;-70
2024/01/02 04:15:42;;;;;;;0.38;0.30;;;;;;;;;;5083101;28;20220;-70
2024/01/02 04:18:08;;;;;;;0.28;0.28;;;;;;;;;;5081912;28;20274;-70
2024/01/02 04:20:35;;;;;;;1.20;0.40;;;;;;;;;;5077654;28;20195;-70
2024/01/02 04:23:02;;;;;;;0.47;0.40;;;;;;;;;;5076774;28;20257;-70
2024/01/02 04:25:29;;;;;;;0.30;0.30;;;;;;;;;;5077705;28;20655;-70
2024/01/02 04:27:56;;;;;;;0.30;0.30;;;;;;;;;;5080320;28;20183;-70
2024/01/02 04:30:22;;;;;;;0.68;0.30;;;;;;;;;;5078942;28;20589;-70
2024/01/02 04:32:49;;;;;;;0.40;0.40;;;;;;;;;;5073041;28;20192;-70
2024/01/02 04:35:15;;;;;;;0.20;0.20;;;;;;;;;;5083176;28;20220;-70
2024/01/02 04:37:41;;;;;;;0.57;0.38;;;;;;;;;;5080293;28;20216;-70
2024/01/02 04:40:10;;;;;;;0.60;0.30;;;;;;;;;;5079715;28;20657;-70
2024/01/02 04:42:37;;;;;;;0.45;0.40;;;;;;;;;;5081859;28;20279;-70
2024/01/02 04:45:03;;;;;;;0.20;0.20;;;;;;;;;;5083198;28;20223;-70
2024/01/02 04:47:29;;;;;;;0.35;0.35;;;;;;;;;;5082414;28;20230;-70
2024/01/02 04:49:56;;;;;;;0.20;0.20;;;;;;;;;;5079866;28;20197;-70
2024/01/02 04:52:22;;;;;;;0.90;0.40;;;;;;;;;;5079708;28;20205;-69
2024/01/02 04:54:49;;;;;;;0.30;0.30;;;;;;;;;;5083509;28;20200;-69
2024/01/02 04:57:16;;;;;;;1.15;0.30;;;;;;;;;;5083470;28;20291;-69
2024/01/02 04:59:43;;;;;;;0.30;0.30;;;;;;;;;;5075082;28;20651;-70
2024/01/02 05:02:09;;;;;;;1.13;0.30;;;;;;;;;;5083044;28;20264;-70
2024/01/02 05:04:36;;;;;;;0.30;0.30;;;;;;;;;;5089728;28;20250;-70
2024/01/02 05:07:02;;;;;;;0.35;0.35;;;;;;;;;;5079715;28;20709;-70
2024/01/02 05:09:28;;;;;;;0.55;0.30;;;;;;;;;;5080378;28;20250;-70
2024/01/02 05:11:55;;;;;;;0.50;0.28;;;;;;;;;;5083221;28;20254;-70
2024/01/02 05:14:22;;;;;;;0.80;0.30;;;;;;;;;;5083442;28;20200;-70
2024/01/02 05:16:49;;;;;;;0.55;0.30;;;;;;;;;;5079351;28;20212;-70
2024/01/02 05:19:15;;;;;;;0.40;0.32;;;;;;;;;;5079514;28;20281;-70
2024/01/02 05:21:41;;;;;;;0.38;0.30;;;;;;;;;;5082026;28;20234;-70
2024/01/02 05:24:08;;;;;;;1.00;0.22;;;;;;;;;;5082884;28;20200;-70
2024/01/02 05:26:34;;;;;;;1.17;0.32;;;;;;;;;;5083578;28;20231;-70
2024/01/02 05:29:00;;;;;;;1.60;0.50;;;;;;;;;;5083612;28;20617;-70
2024/01/02 05:31:28;;;;;;;0.70;0.30;;;;;;;;;;5082942;28;20731;-70
2024/01/02 05:33:54;;;;;;;1.35;0.30;;;;;;;;;;5086933;28;20204;-70
2024/01/02 05:36:20;;;;;;;0.47;0.30;;;;;;;;;;5086333;28;20219;-70
2024/01/02 05:38:46;;;;;;;0.65;0.45;;;;;;;;;;5083823;28;20254;-70
2024/01/02 05:41:13;;;;;;;0.30;0.30;;;;;;;;;;5083192;28;20197;-70
2024/01/02 05:43:39;;;;;;;0.40;0.40;;;;;;;;;;5084693;28;20207;-70
2024/01/02 05:46:05;;;;;;;0.30;0.30;;;;;;;;;;5086002;28;20284;-70
2024/01/02 05:48:33;;;;;;;0.40;0.40;;;;;;;;;;5085496;28;20332;-70
2024/01/02 05:50:59;;;;;;;0.40;0.40;;;;;;;;;;5082997;28;20200;-70
2024/01/02 05:53:25;;;;;;;0.52;0.40;;;;;;;;;;5083123;28;20196;-70
2024/01/02 05:55:51;;;;;;;0.50;0.50;;;;;;;;;;5082544;28;20261;-70
2024/01/02 05:58:18;;;;;;;1.60;0.63;;;;;;;;;;5083199;28;20269;-70
2024/01/02 06:00:44;;;;;;;0.65;0.47;;;;;;;;;;5087728;28;20212;-70
2024/01/02 06:03:10;;;;;;;0.45;0.32;;;;;;;;;;5089447;28;20398;-70
2024/01/02 06:05:38;;;;;;;0.30;0.30;;;;;;;;;;5088260;28;20228;-70
2024/01/02 06:08:04;;;;;;;0.90;0.40;;;;;;;;;;5094854;28;20222;-70
2024/01/02 06:10:30;;;;;;;1.35;0.45;;;;;;;;;;5080709;28;20207;-70
2024/01/02 06:12:57;;;;;;;1.17;0.47;;;;;;;;;;5082399;28;20201;-70
2024/01/02 06:15:23;;;;;;;0.82;0.50;;;;;;;;;;5082085;28;20273;-70
2024/01/02 06:17:50;;;;;;;0.30;0.30;;;;;;;;;;5084917;28;20773;-70
2024/01/02 06:20:16;;;;;;;0.30;0.30;;;;;;;;;;5085995;28;20196;-70
2024/01/02 06:22:43;;;;;;;0.38;0.30;;;;;;;;;;5084159;28;20722;-70
2024/01/02 06:25:10;;;;;;;0.60;0.60;;;;;;;;;;5082201;28;20774;-70
2024/01/02 06:27:36;;;;;;;1.08;0.52;;;;;;;;;;5082887;28;20597;-70
2024/01/02 06:30:03;;;;;;;0.40;0.40;;;;;;;;;;5085102;28;20279;-70
2024/01/02 06:32:30;;;;;;;0.43;0.43;;;;;;;;;;5084761;28;20238;-70
2024/01/02 06:34:56;;;;;;;1.25;0.20;;;;;;;;;;5081395;28;20207;-70
2024/01/02 06:37:23;;;;;;;0.63;0.40;;;;;;;;;;5079317;28;20200;-70
2024/01/02 06:39:51;;;;;;;0.28;0.28;;;;;;;;;;5082177;28;20310;-70
2024/01/02 06:42:17;;;;;;;3.70;0.40;;;;;;;;;;5081059;28;20226;-70
2024/01/02 06:44:44;;;;;;;0.28;0.25;;;;;;;;;;5085228;28;20650;-71
2024/01/02 06:47:10;;;;;;;0.20;0.20;;;;;;;;;;5068574;28;20213;-70
2024/01/02 06:49:36;;;;;;;0.30;0.30;;;;;;;;;;5076421;28;20612;-70
2024/01/02 06:52:02;;;;;;;0.40;0.40;;;;;;;;;;5076376;28;20661;-70
2024/01/02 06:54:29;;;;;;;0.30;0.30;;;;;;;;;;5075095;28;20568;-67
2024/01/02 06:56:58;;;;;;;0.45;0.45;;;;;;;;;;5076458;28;20709;-64
2024/01/02 06:59:24;;;;;;;0.40;0.40;;;;;;;;;;5078005;28;20243;-62
2024/01/02 07:01:51;;;;;;;0.30;0.30;;;;;;;;;;5075575;28;20364;-61
2024/01/02 07:04:17;;;;;;;0.30;0.30;;;;;;;;;;5070185;28;20215;-62
2024/01/02 07:06:43;;;;;;;0.47;0.40;;;;;;;;;;5070887;28;20822;-63
2024/01/02 07:09:10;;;;;;;0.30;0.30;;;;;;;;;;5065752;28;20569;-65
2024/01/02 07:11:36;;;;;;;0.55;0.40;;;;;;;;;;5065728;28;20317;-63
2024/01/02 07:14:03;;;;;;;0.22;0.22;;;;;;;;;;5064582;28;20204;-63
2024/01/02 07:16:31;;;;;;;0.30;0.30;;;;;;;;;;5064380;28;20289;-63
2024/01/02 07:18:58;;;;;;;0.57;0.32;;;;;;;;;;5063776;28;20248;-61
2024/01/02 07:21:24;;;;;;;0.30;0.20;;;;;;;;;;5064158;28;20262;-61
2024/01/02 07:23:50;;;;;;;0.20;0.20;;;;;;;;;;5068080;28;20212;-63
2024/01/02 07:26:17;;;;;;;0.30;0.30;;;;;;;;;;5067391;28;20228;-62
2024/01/02 07:28:43;;;;;;;0.40;0.40;;;;;;;;;;5065105;28;20258;-62
2024/01/02 07:31:12;;;;;;;0.30;0.30;;;;;;;;;;5069729;28;20203;-62
2024/01/02 07:33:41;;;;;;;0.20;0.20;;;;;;;;;;5077616;28;20207;-63
2024/01/02 07:36:08;;;;;;;1.17;0.32;;;;;;;;;;5074247;28;20227;-62
2024/01/02 07:38:34;;;;;;;2.38;0.30;;;;;;;;;;5069857;28;20251;-62
2024/01/02 07:41:00;;;;;;;0.40;0.40;;;;;;;;;;5063228;28;20201;-62
2024/01/02 07:43:28;;;;;;;0.70;0.70;;;;;;;;;;5065023;28;20212;-61
2024/01/02 07:45:55;;;;;;;0.30;0.30;;;;;;;;;;5064065;28;20224;-64
2024/01/02 07:48:22;;;;;;;0.52;0.52;;;;;;;;;;5068834;28;20200;-63
2024/01/02 07:50:49;;;;;;;0.30;0.30;;;;;;;;;;5073429;28;20207;-63
2024/01/02 07:53:19;;;;;;;0.45;0.30;;;;;;;;;;5067145;28;20204;-64
2024/01/02 07:55:45;;;;;;;0.20;0.20;;;;;;;;;;5070571;28;20584;-64
2024/01/02 07:58:12;;;;;;;0.20;0.20;;;;;;;;;;5071860;28;20292;-63
2024/01/02 08:00:38;;;;;;;0.20;0.20;;;;;;;;;;5067479;28;20212;-64
2024/01/02 08:03:04;;;;;;;0.20;0.20;;;;;;;;;;5074058;28;20582;-64
2024/01/02 08:05:32;;;;;;;0.40;0.40;;;;;;;;;;5064611;28;20275;-64
2024/01/02 08:07:58;;;;;;;0.90;0.30;;;;;;;;;;5064808;28;20848;-65
2024/01/02 08:10:24;;;;;;;0.40;0.40;;;;;;;;;;5071034;28;20897;-65
2024/01/02 08:12:51;;;;;;;0.30;0.30;;;;;;;;;;5068236;28;20566;-65
2024/01/02 08:15:17;;;;;;;0.35;0.32;;;;;;;;;;5069635;28;20231;-64
2024/01/02 08:17:43;;;;;;;0.35;0.35;;;;;;;;;;5071410;28;20212;-63
2024/01/02 08:20:10;;;;;;;0.40;0.40;;;;;;;;;;5064412;28;20266;-67
2024/01/02 08:22:38;;;;;;;1.00;0.43;;;;;;;;;;5063589;28;20261;-65
2024/01/02 08:25:04;;;;;;;0.32;0.32;;;;;;;;;;5067409;28;20782;-66
2024/01/02 08:27:30;;;;;;;0.35;0.20;;;;;;;;;;5064189;28;20204;-62
2024/01/02 08:29:58;;;;;;;0.30;0.30;;;;;;;;;;5067741;28;20258;-64
2024/01/02 08:32:24;;;;;;;0.75;0.30;;;;;;;;;;5064934;28;20293;-64
2024/01/02 08:34:51;;;;;;;0.22;0.22;;;;;;;;;;5066115;28;20208;-64
2024/01/02 08:37:18;;;;;;;0.30;0.30;;;;;;;;;;5069213;28;20208;-65
2024/01/02 08:39:46;;;;;;;0.32;0.28;;;;;;;;;;5068969;28;20228;-64
2024/01/02 08:42:14;;;;;;;0.30;0.30;;;;;;;;;;5068451;28;20208;-64
2024/01/02 08:44:40;;;;;;;0.55;0.55;;;;;;;;;;5063396;28;20212;-65
2024/01/02 08:47:06;;;;;;;0.20;0.20;;;;;;;;;;5070435;28;20257;-64
2024/01/02 08:49:33;;;;;;;0.55;0.52;;;;;;;;;;5069246;28;20212;-63
2024/01/02 08:51:59;;;;;;;0.40;0.30;;;;;;;;;;5067762;28;20320;-60
2024/01/02 08:54:25;;;;;;;0.80;0.80;;;;;;;;;;5073578;28;20261;-62
2024/01/02 08:56:53;;;;;;;0.80;0.70;;;;;;;;;;5074233;28;20313;-67
2024/01/02 08:59:19;;;;;;;0.40;0.40;;;;;;;;;;5070189;28;20305;-66
2024/01/02 09:01:49;;;;;;;0.30;0.30;;;;;;;;;;5075566;28;20211;-62
2024/01/02 09:04:15;;;;;;;0.25;0.25;;;;;;;;;;5073118;28;20203;-62
2024/01/02 09:06:42;;;;;;;0.85;0.40;;;;;;;;;;5075207;28;20305;-63
2024/01/02 09:09:08;;;;;;;1.92;1.80;;;;;;;;;;5069774;28;20255;-63
2024/01/02 09:11:35;;;;;;;2.53;2.30;;;;;;;;;;5077467;28;20247;-63
2024/01/02 09:14:02;;;;;;;0.30;0.30;;;;;;;;;;5075939;28;20208;-63
2024/01/02 09:16:31;;;;;;;0.52;0.52;;;;;;;;;;5075277;28;20227;-65
2024/01/02 09:18:58;;;;;;;0.38;0.38;;;;;;;;;;5069467;28;20220;-63
2024/01/02 09:21:24;;;;;;;0.40;0.40;;;;;;;;;;5076380;28;20757;-63
2024/01/02 09:23:50;;;;;;;1.13;0.50;;;;;;;;;;5077856;28;20654;-63
2024/01/02 09:26:19;;;;;;;0.50;0.50;;;;;;;;;;5080573;28;20216;-65
2024/01/02 09:28:46;;;;;;;0.40;0.40;;;;;;;;;;5080656;28;20203;-63
2024/01/02 09:31:14;;;;;;;3.72;1.23;;;;;;;;;;5076526;28;20208;-64
2024/01/02 09:33:42;;;;;;;2.90;0.47;;;;;;;;;;5069014;28;20584;-63
2024/01/02 09:36:09;;;;;;;0.40;0.40;;;;;;;;;;5076582;28;20224;-63
2024/01/02 09:38:37;;;;;;;0.25;0.25;;;;;;;;;;5078091;28;20763;-63
2024/01/02 09:41:11;;;;;;;0.40;0.40;;;;;;;;;;5078145;28;20563;-63
2024/01/02 09:43:59;;;;;;;0.20;0.20;;;;;;;;;;5077023;28;20295;-63
2024/01/02 09:46:31;;;;;;;0.90;0.90;;;;;;;;;;5069082;28;20220;-64
2024/01/02 09:49:05;;;;;;;0.50;0.50;;;;;;;;;;5077888;28;20258;-64
2024/01/02 09:51:37;;;;;;;0.45;0.45;;;;;;;;;;5072543;28;20218;-64
2024/01/02 09:54:11;;;;;;;0.47;0.47;;;;;;;;;;5071411;28;20216;-64
2024/01/02 09:56:39;;;;;;;0.30;0.30;;;;;;;;;;5063735;28;21024;-65
2024/01/02 09:59:11;;;;;;;1.65;0.50;;;;;;;;;;5077496;28;20228;-64
2024/01/02 10:01:45;;;;;;;0.47;0.47;;;;;;;;;;5073570;28;20284;-65
2024/01/02 10:04:30;;;;;;;0.30;0.30;;;;;;;;;;5078879;28;20758;-64
2024/01/02 10:07:06;;;;;;;0.50;0.40;;;;;;;;;;5068589;28;20233;-65
2024/01/02 10:09:42;;;;;;;0.20;0.20;;;;;;;;;;5074358;28;20214;-64
2024/01/02 10:12:12;;;;;;;0.30;0.30;;;;;;;;;;5070273;28;20208;-65
2024/01/02 10:14:45;;;;;;;0.93;0.35;;;;;;;;;;5067421;28;20219;-64
2024/01/02 10:17:17;;;;;;;0.30;0.30;;;;;;;;;;5072589;28;20208;-64
2024/01/02 10:19:50;;;;;;;0.50;0.50;;;;;;;;;;5072845;28;20224;-64
2024/01/02 10:22:25;;;;;;;0.35;0.30;;;;;;;;;;5069949;28;20417;-64
2024/01/02 10:24:51;;;;;;;0.30;0.30;;;;;;;;;;5069828;28;20227;-63
2024/01/02 10:27:22;;;;;;;1.65;0.45;;;;;;;;;;5075657;28;20200;-63
2024/01/02 10:29:52;;;;;;;0.30;0.30;;;;;;;;;;5073224;28;20203;-63
2024/01/02 10:32:27;;;;;;;0.47;0.30;;;;;;;;;;5056365;28;20208;-63
2024/01/02 10:34:57;;;;;;;0.30;0.30;;;;;;;;;;5065226;28;20235;-63
2024/01/02 10:37:26;;;;;;;0.52;0.32;;;;;;;;;;5066938;28;20254;-64
2024/01/02 10:39:58;;;;;;;0.45;0.30;;;;;;;;;;5067255;28;20218;-63
2024/01/02 10:42:27;;;;;;;0.20;0.20;;;;;;;;;;5069692;28;20713;-63
2024/01/02 10:45:06;;;;;;;1.45;0.30;;;;;;;;;;5073073;28;20912;-62
2024/01/02 10:47:39;;;;;;;2.10;0.30;;;;;;;;;;5068006;28;20203;-62
2024/01/02 10:50:09;;;;;;;0.40;0.40;;;;;;;;;;5068302;28;20205;-62
2024/01/02 10:52:42;;;;;;;0.88;0.35;;;;;;;;;;5065359;28;20303;-62
2024/01/02 10:55:11;;;;;;;0.30;0.30;;;;;;;;;;5073928;28;20225;-62
2024/01/02 10:57:44;;;;;;;0.20;0.20;;;;;;;;;;5065220;28;20269;-62
2024/01/02 11:00:18;;;;;;;0.47;0.30;;;;;;;;;;5070186;28;20224;-63
2024/01/02 11:02:51;;;;;;;0.60;0.52;;;;;;;;;;5069238;28;20218;-63
2024/01/02 11:05:21;;;;;;;0.30;0.30;;;;;;;;;;5068655;28;20231;-63
2024/01/02 11:07:50;;;;;;;0.30;0.30;;;;;;;;;;5069096;28;20636;-62
2024/01/02 11:10:19;;;;;;;0.40;0.40;;;;;;;;;;5070682;28;20285;-62
2024/01/02 11:12:48;;;;;;;0.90;0.90;;;;;;;;;;5074056;28;20212;-62
2024/01/02 11:15:15;;;;;;;1.63;1.60;;;;;;;;;;5073578;28;20700;-62
2024/01/02 11:17:42;;;;;;;0.60;0.60;;;;;;;;;;5069196;28;20216;-62
2024/01/02 11:20:14;;;;;;;1.30;1.20;;;;;;;;;;5065541;28;20229;-63
2024/01/02 11:22:44;;;;;;;0.30;0.30;;;;;;;;;;5071244;28;20703;-63
2024/01/02 11:25:11;;;;;;;4.10;2.47;;;;;;;;;;5073452;28;20223;-62
2024/01/02 11:27:38;;;;;;;2.08;1.90;;;;;;;;;;5070168;28;20207;-62
2024/01/02 11:30:05;;;;;;;0.40;0.40;;;;;;;;;;5070061;28;20685;-63
2024/01/02 11:32:38;;;;;;;1.08;0.30;;;;;;;;;;5073939;28;20208;-63
2024/01/02 11:35:06;;;;;;;0.43;0.43;;;;;;;;;;5073536;28;20676;-63
2024/01/02 11:37:36;;;;;;;2.72;2.53;;;;;;;;;;5077259;28;20234;-63
2024/01/02 11:40:17;;;;;;;0.40;0.40;;;;;;;;;;5070033;28;20303;-63
2024/01/02 11:42:49;;;;;;;0.30;0.30;;;;;;;;;;5073542;28;20250;-63
2024/01/02 11:45:17;;;;;;;0.38;0.38;;;;;;;;;;5067431;28;20232;-63
2024/01/02 11:47:44;;;;;;;1.50;1.40;;;;;;;;;;5073522;28;20200;-63
2024/01/02 11:50:11;;;;;;;2.15;2.05;;;;;;;;;;5066490;28;20211;-63
2024/01/02 11:52:46;;;;;;;2.70;2.60;;;;;;;;;;5063460;28;20212;-63
2024/01/02 11:55:13;;;;;;;1.30;1.30;;;;;;;;;;5072395;28;20784;-63
2024/01/02 11:57:43;;;;;;;0.40;0.40;;;;;;;;;;5066414;28;20214;-63
2024/01/02 12:00:10;;;;;;;0.30;0.30;;;;;;;;;;5074199;28;20766;-63
2024/01/02 12:02:52;;;;;;;0.65;0.65;;;;;;;;;;5073268;28;20241;-62
2024/01/02 12:05:24;;;;;;;0.68;0.38;;;;;;;;;;5068937;28;20293;-63
2024/01/02 12:07:54;;;;;;;0.60;0.60;;;;;;;;;;5074344;28;20204;-64
2024/01/02 12:10:22;;;;;;;0.43;0.43;;;;;;;;;;5066123;28;20204;-63
2024/01/02 12:12:53;;;;;;;1.80;0.40;;;;;;;;;;5065852;28;20245;-63
2024/01/02 12:15:24;;;;;;;0.30;0.30;;;;;;;;;;5076280;28;20224;-63
2024/01/02 12:17:53;;;;;;;0.40;0.40;;;;;;;;;;5077150;28;20204;-63
2024/01/02 12:20:21;;;;;;;1.48;0.40;;;;;;;;;;5069325;28;20273;-64
2024/01/02 12:22:49;;;;;;;1.38;0.32;;;;;;;;;;5071892;28;20230;-64
2024/01/02 12:25:17;;;;;;;0.38;0.38;;;;;;;;;;5069199;28;20236;-64
2024/01/02 12:27:43;;;;;;;0.25;0.25;;;;;;;;;;5064666;28;20209;-65
2024/01/02 12:30:14;;;;;;;0.73;0.73;;;;;;;;;;5063899;28;20204;-63
2024/01/02 12:32:47;;;;;;;0.40;0.40;;;;;;;;;;5065588;28;20610;-64
2024/01/02 12:35:19;;;;;;;0.20;0.20;;;;;;;;;;5065309;28;20723;-62
2024/01/02 12:37:51;;;;;;;1.23;0.30;;;;;;;;;;5070028;28;20214;-64
2024/01/02 12:40:20;;;;;;;0.40;0.40;;;;;;;;;;5068622;28;20220;-64
2024/01/02 12:42:50;;;;;;;0.30;0.30;;;;;;;;;;5070339;28;20212;-62
2024/01/02 12:45:20;;;;;;;0.40;0.40;;;;;;;;;;5066503;28;20277;-64
2024/01/02 12:47:47;;;;;;;2.05;0.50;;;;;;;;;;5073034;28;20208;-65
2024/01/02 12:50:14;;;;;;;0.60;0.60;;;;;;;;;;5068821;28;20204;-64
2024/01/02 12:52:45;;;;;;;0.50;0.50;;;;;;;;;;5068040;28;20584;-63
2024/01/02 12:55:14;;;;;;;0.40;0.30;;;;;;;;;;5075187;28;20574;-64
2024/01/02 12:57:42;;;;;;;0.50;0.50;;;;;;;;;;5065164;28;20639;-66
2024/01/02 13:00:12;;;;;;;0.30;0.30;;;;;;;;;;5072285;28;20228;-63
2024/01/02 13:02:38;;;;;;;0.47;0.40;;;;;;;;;;5072693;28;20204;-62
2024/01/02 13:05:05;;;;;;;0.77;0.65;;;;;;;;;;5072626;28;20235;-64
2024/01/02 13:07:31;;;;;;;1.05;0.50;;;;;;;;;;5072389;28;20311;-63
2024/01/02 13:10:00;;;;;;;0.52;0.40;;;;;;;;;;5064540;28;20201;-63
2024/01/02 13:12:26;;;;;;;1.35;1.27;;;;;;;;;;5066077;28;20729;-65
2024/01/02 13:14:55;;;;;;;0.30;0.30;;;;;;;;;;5064971;28;20619;-63
2024/01/02 13:17:21;;;;;;;1.85;1.63;;;;;;;;;;5072600;28;20207;-63
2024/01/02 13:19:47;;;;;;;0.57;0.57;;;;;;;;;;5064875;28;20204;-63
2024/01/02 13:22:20;;;;;;;4.30;3.58;;;;;;;;;;5062274;28;20658;-63
2024/01/02 13:24:47;;;;;;;1.00;1.00;;;;;;;;;;5070148;28;20254;-63
2024/01/02 13:27:14;;;;;;;6.88;3.80;;;;;;;;;;5063755;28;20212;-63
2024/01/02 13:29:45;;;;;;;1.40;1.30;;;;;;;;;;5067961;28;20315;-63
2024/01/02 13:32:13;;;;;;;10.48;5.30;;;;;;;;;;5070312;28;20257;-64
2024/01/02 13:34:40;;;;;;;2.17;1.10;;;;;;;;;;5070910;28;20212;-63
2024/01/02 13:37:06;;;;;;;15.80;7.10;;;;;;;;;;5072548;28;20208;-63
2024/01/02 13:39:33;;;;;;;5.43;2.90;;;;;;;;;;5072595;28;20212;-63
2024/01/02 13:42:02;;;;;;;1.85;1.60;;;;;;;;;;5064998;28;20224;-63
2024/01/02 13:44:29;;;;;;;0.30;0.30;;;;;;;;;;5074759;28;20513;-63
2024/01/02 13:46:55;;;;;;;0.43;0.30;;;;;;;;;;5073357;28;20596;-63
2024/01/02 13:49:42;;;;;;;6.53;3.53;;;;;;;;;;5076308;28;20587;-63
2024/01/02 13:52:09;;;;;;;9.23;3.40;;;;;;;;;;5067023;28;20209;-63
2024/01/02 13:54:41;;;;;;;0.60;0.55;;;;;;;;;;5070453;28;20200;-62
2024/01/02 13:57:07;;;;;;;6.00;2.85;;;;;;;;;;5071282;28;20204;-64
2024/01/02 13:59:34;;;;;;;38.92;21.30;;;;;;;;;;5075386;28;20259;-63
2024/01/02 14:02:03;;;;;;;4.82;4.43;;;;;;;;;;5075558;28;20216;-63
2024/01/02 14:04:31;;;;;;;0.40;0.40;;;;;;;;;;5067725;28;20262;-64
2024/01/02 14:07:02;;;;;;;2.15;2.15;;;;;;;;;;5075150;28;20243;-64
2024/01/02 14:09:29;;;;;;;0.73;0.73;;;;;;;;;;5070550;28;20215;-64
2024/01/02 14:11:56;;;;;;;0.30;0.30;;;;;;;;;;5070760;28;20196;-64
2024/01/02 14:14:30;;;;;;;0.30;0.30;;;;;;;;;;5068821;28;20303;-63
2024/01/02 14:16:58;;;;;;;0.68;0.65;;;;;;;;;;5075135;28;20286;-64
2024/01/02 14:19:27;;;;;;;0.77;0.65;;;;;;;;;;5070770;28;20262;-64
2024/01/02 14:21:57;;;;;;;0.85;0.85;;;;;;;;;;5072416;28;20265;-63
2024/01/02 14:24:26;;;;;;;0.35;0.35;;;;;;;;;;5069282;28;20208;-63
2024/01/02 14:26:55;;;;;;;0.70;0.70;;;;;;;;;;5066185;28;20282;-63
2024/01/02 14:29:31;;;;;;;0.43;0.43;;;;;;;;;;5071586;28;20264;-63
2024/01/02 14:32:00;;;;;;;1.20;1.15;;;;;;;;;;5074510;28;20200;-63
2024/01/02 14:34:35;;;;;;;0.77;0.60;;;;;;;;;;5066513;28;20209;-63
2024/01/02 14:37:07;;;;;;;0.68;0.50;;;;;;;;;;5075539;28;20224;-63
2024/01/02 14:39:42;;;;;;;0.38;0.38;;;;;;;;;;5075046;28;20216;-64
2024/01/02 14:42:22;;;;;;;2.20;2.10;;;;;;;;;;5076738;28;20212;-64
2024/01/02 14:44:53;;;;;;;1.50;1.50;;;;;;;;;;5050407;28;20208;-64
2024/01/02 14:47:25;;;;;;;0.60;0.60;;;;;;;;;;5074694;28;20270;-64